createdAt,value
2023-04-18T00:00:37.005Z,6856.00
2023-04-18T00:01:37.032Z,6939.00
2023-04-18T00:02:37.113Z,6946.00
2023-04-18T00:03:37.220Z,6907.00
2023-04-18T00:04:37.120Z,6849.00
2023-04-18T00:05:37.087Z,6794.00
2023-04-18T00:06:37.156Z,6748.00
2023-04-18T00:07:37.230Z,6730.00
2023-04-18T00:08:37.191Z,6709.00
2023-04-18T00:09:37.379Z,6678.00
2023-04-18T00:10:37.176Z,6467.00
2023-04-18T00:11:37.202Z,6404.00
2023-04-18T00:12:37.198Z,6377.00
2023-04-18T00:13:37.235Z,6367.00
2023-04-18T00:14:37.300Z,6329.00
2023-04-18T00:15:37.271Z,6385.00
2023-04-18T00:16:37.345Z,6309.00
2023-04-18T00:17:37.296Z,6244.00
2023-04-18T00:18:37.306Z,6186.00
2023-04-18T00:19:37.253Z,6201.00
2023-04-18T00:20:37.686Z,6239.00
2023-04-18T00:21:37.283Z,6257.00
2023-04-18T00:22:37.311Z,6238.00
2023-04-18T00:23:37.494Z,6191.00
2023-04-18T00:24:37.388Z,6195.00
2023-04-18T00:25:37.461Z,6226.00
2023-04-18T00:26:37.425Z,6260.00
2023-04-18T00:27:37.431Z,6301.00
2023-04-18T00:28:37.490Z,6275.00
2023-04-18T00:29:37.553Z,6302.00
2023-04-18T00:30:37.722Z,6309.00
2023-04-18T00:31:37.570Z,6249.00
2023-04-18T00:32:37.671Z,6140.00
2023-04-18T00:33:37.618Z,6149.00
2023-04-18T00:34:37.663Z,6174.00
2023-04-18T00:35:37.654Z,6143.00
2023-04-18T00:36:37.689Z,6073.00
2023-04-18T00:37:37.685Z,5877.00
2023-04-18T00:38:37.665Z,5576.00
2023-04-18T00:39:37.725Z,5468.00
2023-04-18T00:40:37.764Z,5401.00
2023-04-18T00:41:37.757Z,5275.00
2023-04-18T00:42:37.797Z,5190.00
2023-04-18T00:43:38.624Z,5005.00
2023-04-18T00:44:37.835Z,5020.00
2023-04-18T00:45:37.939Z,4915.00
2023-04-18T00:46:37.990Z,4866.00
2023-04-18T00:47:37.905Z,4845.00
2023-04-18T00:48:37.896Z,4869.00
2023-04-18T00:49:37.908Z,4760.00
2023-04-18T00:50:37.935Z,4641.00
2023-04-18T00:51:38.041Z,4612.00
2023-04-18T00:52:37.977Z,4616.00
2023-04-18T00:53:37.977Z,4555.00
2023-04-18T00:54:38.055Z,4589.00
2023-04-18T00:55:37.986Z,4637.00
2023-04-18T00:56:37.997Z,4684.00
2023-04-18T00:57:38.024Z,4679.00
2023-04-18T00:58:38.128Z,4849.00
2023-04-18T00:59:38.005Z,5017.00
2023-04-18T01:00:37.992Z,5238.00
2023-04-18T01:01:38.112Z,5551.00
2023-04-18T01:02:38.162Z,6008.00
2023-04-18T01:03:38.224Z,6422.00
2023-04-18T01:04:38.206Z,6921.00
2023-04-18T01:05:38.211Z,7149.00
2023-04-18T01:06:38.133Z,7356.00
2023-04-18T01:07:38.247Z,7514.00
2023-04-18T01:08:38.221Z,7578.00
2023-04-18T01:09:38.593Z,7469.00
2023-04-18T01:10:38.296Z,7170.00
2023-04-18T01:11:38.275Z,7053.00
2023-04-18T01:12:38.293Z,7069.00
2023-04-18T01:13:38.361Z,7120.00
2023-04-18T01:14:38.369Z,6847.00
2023-04-18T01:15:38.418Z,6285.00
2023-04-18T01:16:38.354Z,5918.00
2023-04-18T01:17:38.460Z,5876.00
2023-04-18T01:18:38.446Z,5934.00
2023-04-18T01:19:38.571Z,5797.00
2023-04-18T01:20:39.119Z,5675.00
2023-04-18T01:21:38.601Z,5792.00
2023-04-18T01:22:38.573Z,6042.00
2023-04-18T01:23:38.549Z,6359.00
2023-04-18T01:24:38.622Z,6772.00
2023-04-18T01:25:38.525Z,7008.00
2023-04-18T01:26:38.552Z,7157.00
2023-04-18T01:27:38.623Z,7237.00
2023-04-18T01:28:38.686Z,7049.00
2023-04-18T01:29:39.668Z,6586.00
2023-04-18T01:30:38.817Z,6225.00
2023-04-18T01:31:38.958Z,5979.00
2023-04-18T01:32:38.856Z,5844.00
2023-04-18T01:33:39.650Z,5843.00
2023-04-18T01:34:38.853Z,5883.00
2023-04-18T01:35:38.813Z,5570.00
2023-04-18T01:36:38.859Z,5490.00
2023-04-18T01:37:38.845Z,5183.00
2023-04-18T01:38:38.888Z,5094.00
2023-04-18T01:39:38.844Z,4920.00
2023-04-18T01:40:38.922Z,4807.00
2023-04-18T01:41:38.924Z,4766.00
2023-04-18T01:42:38.936Z,4817.00
2023-04-18T01:43:38.924Z,4946.00
2023-04-18T01:44:38.982Z,5116.00
2023-04-18T01:45:39.166Z,5118.00
2023-04-18T01:46:39.085Z,5102.00
2023-04-18T01:47:39.067Z,4983.00
2023-04-18T01:48:39.102Z,4971.00
2023-04-18T01:49:39.171Z,4928.00
2023-04-18T01:50:39.273Z,4866.00
2023-04-18T01:51:39.272Z,4832.00
2023-04-18T01:52:39.282Z,4781.00
2023-04-18T01:53:39.305Z,4781.00
2023-04-18T01:54:39.323Z,4740.00
2023-04-18T01:55:39.440Z,4782.00
2023-04-18T01:56:39.425Z,4722.00
2023-04-18T01:57:39.498Z,4639.00
2023-04-18T01:58:39.443Z,4606.00
2023-04-18T01:59:39.462Z,4572.00
2023-04-18T02:00:39.506Z,4567.00
2023-04-18T02:01:39.481Z,4544.00
2023-04-18T02:02:39.616Z,4463.00
2023-04-18T02:03:39.619Z,4439.00
2023-04-18T02:04:39.532Z,4418.00
2023-04-18T02:05:39.533Z,4287.00
2023-04-18T02:06:39.560Z,4373.00
2023-04-18T02:07:39.584Z,4278.00
2023-04-18T02:08:39.624Z,4212.00
2023-04-18T02:09:39.654Z,4241.00
2023-04-18T02:10:39.679Z,4207.00
2023-04-18T02:11:39.685Z,4040.00
2023-04-18T02:12:39.717Z,4133.00
2023-04-18T02:13:39.791Z,4086.00
2023-04-18T02:14:47.626Z,4048.00
2023-04-18T02:15:39.823Z,3929.00
2023-04-18T02:16:39.885Z,3952.00
2023-04-18T02:17:39.813Z,3857.00
2023-04-18T02:18:39.767Z,3862.00
2023-04-18T02:19:39.764Z,3928.00
2023-04-18T02:20:39.771Z,4015.00
2023-04-18T02:21:39.724Z,4067.00
2023-04-18T02:22:39.775Z,4149.00
2023-04-18T02:23:39.752Z,4280.00
2023-04-18T02:24:40.153Z,4393.00
2023-04-18T02:25:39.743Z,4480.00
2023-04-18T02:26:39.712Z,4388.00
2023-04-18T02:27:39.731Z,4300.00
2023-04-18T02:28:39.718Z,4283.00
2023-04-18T02:29:40.229Z,4241.00
2023-04-18T02:30:39.787Z,4186.00
2023-04-18T02:31:39.877Z,4117.00
2023-04-18T02:32:39.866Z,4174.00
2023-04-18T02:33:39.963Z,4156.00
2023-04-18T02:34:39.918Z,4175.00
2023-04-18T02:35:40.714Z,4164.00
2023-04-18T02:36:41.687Z,4250.00
2023-04-18T02:37:39.924Z,4196.00
2023-04-18T02:38:40.113Z,4089.00
2023-04-18T02:39:40.154Z,3892.00
2023-04-18T02:40:40.078Z,3911.00
2023-04-18T02:41:40.196Z,3977.00
2023-04-18T02:42:40.107Z,3909.00
2023-04-18T02:43:40.125Z,3800.00
2023-04-18T02:44:40.103Z,3935.00
2023-04-18T02:45:40.223Z,3968.00
2023-04-18T02:46:40.250Z,4045.00
2023-04-18T02:47:47.395Z,4227.00
2023-04-18T02:48:41.104Z,4229.00
2023-04-18T02:49:40.288Z,4242.00
2023-04-18T02:50:40.104Z,4272.00
2023-04-18T02:51:40.186Z,4295.00
2023-04-18T02:52:40.096Z,4396.00
2023-04-18T02:53:40.065Z,4437.00
2023-04-18T02:54:40.094Z,4540.00
2023-04-18T02:55:40.154Z,4375.00
2023-04-18T02:56:40.199Z,4330.00
2023-04-18T02:57:40.073Z,4303.00
2023-04-18T02:58:40.057Z,4261.00
2023-04-18T02:59:40.118Z,4368.00
2023-04-18T03:00:40.047Z,4416.00
2023-04-18T03:01:40.099Z,4387.00
2023-04-18T03:02:40.123Z,4373.00
2023-04-18T03:03:40.000Z,4392.00
2023-04-18T03:04:40.006Z,4420.00
2023-04-18T03:05:40.065Z,4503.00
2023-04-18T03:06:40.092Z,4576.00
2023-04-18T03:07:40.185Z,4697.00
2023-04-18T03:08:40.130Z,4827.00
2023-04-18T03:09:40.218Z,5046.00
2023-04-18T03:10:40.272Z,5283.00
2023-04-18T03:11:40.338Z,5378.00
2023-04-18T03:12:40.307Z,5347.00
2023-04-18T03:13:40.382Z,5391.00
2023-04-18T03:14:40.459Z,5429.00
2023-04-18T03:15:40.439Z,5463.00
2023-04-18T03:16:40.544Z,5441.00
2023-04-18T03:17:40.473Z,5435.00
2023-04-18T03:18:40.470Z,5468.00
2023-04-18T03:19:40.511Z,5530.00
2023-04-18T03:20:41.131Z,5593.00
2023-04-18T03:21:40.605Z,5694.00
2023-04-18T03:22:40.619Z,5824.00
2023-04-18T03:23:40.610Z,5901.00
2023-04-18T03:24:40.732Z,5980.00
2023-04-18T03:25:40.779Z,6082.00
2023-04-18T03:26:40.736Z,6148.00
2023-04-18T03:27:40.763Z,6190.00
2023-04-18T03:28:40.834Z,6270.00
2023-04-18T03:29:40.938Z,6430.00
2023-04-18T03:30:40.914Z,6481.00
2023-04-18T03:31:41.046Z,6509.00
2023-04-18T03:32:40.974Z,6464.00
2023-04-18T03:33:40.960Z,6252.00
2023-04-18T03:34:41.099Z,6150.00
2023-04-18T03:35:41.046Z,5987.00
2023-04-18T03:36:41.121Z,5759.00
2023-04-18T03:37:41.130Z,5633.00
2023-04-18T03:38:41.056Z,5511.00
2023-04-18T03:39:41.088Z,5430.00
2023-04-18T03:40:41.091Z,5362.00
2023-04-18T03:41:41.124Z,5306.00
2023-04-18T03:42:41.119Z,5250.00
2023-04-18T03:43:41.086Z,5133.00
2023-04-18T03:44:41.145Z,5100.00
2023-04-18T03:45:41.147Z,5025.00
2023-04-18T03:46:41.255Z,5021.00
2023-04-18T03:47:41.204Z,4972.00
2023-04-18T03:48:41.180Z,4889.00
2023-04-18T03:49:41.206Z,4897.00
2023-04-18T03:50:41.332Z,4910.00
2023-04-18T03:51:41.346Z,4935.00
2023-04-18T03:52:41.354Z,4946.00
2023-04-18T03:53:41.380Z,4995.00
2023-04-18T03:54:41.447Z,4940.00
2023-04-18T03:55:41.426Z,4920.00
2023-04-18T03:56:41.495Z,5044.00
2023-04-18T03:57:41.564Z,5006.00
2023-04-18T03:58:41.578Z,4986.00
2023-04-18T03:59:41.557Z,4897.00
2023-04-18T04:00:41.560Z,4967.00
2023-04-18T04:01:41.559Z,5077.00
2023-04-18T04:02:41.681Z,5198.00
2023-04-18T04:03:41.809Z,5301.00
2023-04-18T04:04:41.771Z,5428.00
2023-04-18T04:05:41.671Z,5640.00
2023-04-18T04:06:41.628Z,5576.00
2023-04-18T04:07:41.592Z,5556.00
2023-04-18T04:08:41.600Z,5482.00
2023-04-18T04:09:41.764Z,5412.00
2023-04-18T04:10:41.708Z,5260.00
2023-04-18T04:11:41.773Z,5210.00
2023-04-18T04:12:41.738Z,5152.00
2023-04-18T04:13:41.762Z,5207.00
2023-04-18T04:14:42.186Z,5275.00
2023-04-18T04:15:42.670Z,5226.00
2023-04-18T04:16:41.863Z,5059.00
2023-04-18T04:17:41.905Z,4972.00
2023-04-18T04:18:41.905Z,5038.00
2023-04-18T04:19:41.921Z,5075.00
2023-04-18T04:20:41.890Z,4992.00
2023-04-18T04:21:41.957Z,4929.00
2023-04-18T04:22:41.930Z,4919.00
2023-04-18T04:23:41.941Z,4927.00
2023-04-18T04:24:41.910Z,4856.00
2023-04-18T04:25:41.936Z,4782.00
2023-04-18T04:26:41.964Z,4736.00
2023-04-18T04:27:42.033Z,4634.00
2023-04-18T04:28:41.992Z,4489.00
2023-04-18T04:29:42.099Z,4412.00
2023-04-18T04:30:42.072Z,4366.00
2023-04-18T04:31:42.243Z,4405.00
2023-04-18T04:32:42.232Z,4425.00
2023-04-18T04:33:42.072Z,4520.00
2023-04-18T04:34:42.140Z,4605.00
2023-04-18T04:35:42.161Z,4698.00
2023-04-18T04:36:42.113Z,4843.00
2023-04-18T04:37:42.146Z,4959.00
2023-04-18T04:38:42.155Z,5160.00
2023-04-18T04:39:42.183Z,5231.00
2023-04-18T04:40:42.204Z,5401.00
2023-04-18T04:41:42.231Z,5459.00
2023-04-18T04:42:42.301Z,5814.00
2023-04-18T04:43:42.258Z,6385.00
2023-04-18T04:44:42.270Z,6597.00
2023-04-18T04:45:42.297Z,6709.00
2023-04-18T04:46:42.256Z,6910.00
2023-04-18T04:47:42.292Z,6979.00
2023-04-18T04:48:42.315Z,7448.00
2023-04-18T04:49:42.373Z,7373.00
2023-04-18T04:50:42.482Z,7533.00
2023-04-18T04:51:42.454Z,7882.00
2023-04-18T04:52:42.556Z,8127.00
2023-04-18T04:53:42.555Z,8449.00
2023-04-18T04:54:42.568Z,8395.00
2023-04-18T04:55:42.608Z,8047.00
2023-04-18T04:56:42.683Z,7447.00
2023-04-18T04:57:42.765Z,7024.00
2023-04-18T04:58:42.738Z,6804.00
2023-04-18T04:59:42.756Z,6864.00
2023-04-18T05:00:42.742Z,6816.00
2023-04-18T05:01:42.773Z,7240.00
2023-04-18T05:02:42.859Z,7476.00
2023-04-18T05:03:42.948Z,7580.00
2023-04-18T05:04:42.904Z,7787.00
2023-04-18T05:05:42.783Z,7682.00
2023-04-18T05:06:42.791Z,7576.00
2023-04-18T05:07:42.828Z,7778.00
2023-04-18T05:08:42.880Z,7840.00
2023-04-18T05:09:42.884Z,7896.00
2023-04-18T05:10:42.920Z,7744.00
2023-04-18T05:11:42.985Z,7607.00
2023-04-18T05:12:43.009Z,7537.00
2023-04-18T05:13:43.028Z,7840.00
2023-04-18T05:14:43.092Z,7955.00
2023-04-18T05:15:43.111Z,7977.00
2023-04-18T05:16:43.115Z,8026.00
2023-04-18T05:17:43.204Z,8025.00
2023-04-18T05:18:43.178Z,7951.00
2023-04-18T05:19:43.153Z,7984.00
2023-04-18T05:20:43.325Z,7808.00
2023-04-18T05:21:43.271Z,7677.00
2023-04-18T05:22:43.337Z,7649.00
2023-04-18T05:23:43.731Z,7570.00
2023-04-18T05:24:43.459Z,7570.00
2023-04-18T05:25:45.210Z,7488.00
2023-04-18T05:26:43.676Z,7333.00
2023-04-18T05:27:43.486Z,7406.00
2023-04-18T05:28:43.807Z,7609.00
2023-04-18T05:29:43.776Z,7797.00
2023-04-18T05:30:43.585Z,7720.00
2023-04-18T05:31:43.590Z,7851.00
2023-04-18T05:32:43.791Z,8160.00
2023-04-18T05:33:44.744Z,7772.00
2023-04-18T05:34:43.838Z,7602.00
2023-04-18T05:35:43.815Z,7678.00
2023-04-18T05:36:43.806Z,8089.00
2023-04-18T05:37:43.741Z,8051.00
2023-04-18T05:38:43.848Z,7650.00
2023-04-18T05:39:44.255Z,7430.00
2023-04-18T05:40:43.836Z,7160.00
2023-04-18T05:41:44.074Z,6946.00
2023-04-18T05:42:44.072Z,6806.00
2023-04-18T05:43:54.192Z,6708.00
2023-04-18T05:44:45.734Z,6701.00
2023-04-18T05:45:43.966Z,6721.00
2023-04-18T05:46:44.045Z,6799.00
2023-04-18T05:47:44.021Z,6924.00
2023-04-18T05:48:43.953Z,7087.00
2023-04-18T05:49:44.252Z,7228.00
2023-04-18T05:50:44.217Z,7166.00
2023-04-18T05:51:43.966Z,6977.00
2023-04-18T05:52:44.014Z,6841.00
2023-04-18T05:53:44.252Z,6742.00
2023-04-18T05:54:43.947Z,6661.00
2023-04-18T05:55:43.958Z,6636.00
2023-04-18T05:56:44.021Z,6663.00
2023-04-18T05:57:43.892Z,6743.00
2023-04-18T05:58:43.872Z,6878.00
2023-04-18T05:59:43.997Z,7023.00
2023-04-18T06:00:43.864Z,7141.00
2023-04-18T06:01:43.877Z,7187.00
2023-04-18T06:02:43.947Z,7203.00
2023-04-18T06:03:44.106Z,7284.00
2023-04-18T06:04:44.163Z,7295.00
2023-04-18T06:05:43.984Z,7295.00
2023-04-18T06:06:43.977Z,7412.00
2023-04-18T06:07:43.951Z,7359.00
2023-04-18T06:08:43.985Z,7306.00
2023-04-18T06:09:44.042Z,7232.00
2023-04-18T06:10:44.205Z,7158.00
2023-04-18T06:11:44.069Z,7119.00
2023-04-18T06:12:44.121Z,6981.00
2023-04-18T06:13:44.204Z,6911.00
2023-04-18T06:14:44.352Z,6954.00
2023-04-18T06:15:44.363Z,6972.00
2023-04-18T06:16:44.222Z,6967.00
2023-04-18T06:17:44.277Z,7002.00
2023-04-18T06:18:44.735Z,6982.00
2023-04-18T06:19:44.270Z,7000.00
2023-04-18T06:20:44.283Z,7057.00
2023-04-18T06:21:44.494Z,7144.00
2023-04-18T06:22:44.522Z,7134.00
2023-04-18T06:23:44.492Z,7051.00
2023-04-18T06:24:44.428Z,6991.00
2023-04-18T06:25:44.473Z,6977.00
2023-04-18T06:26:44.679Z,6986.00
2023-04-18T06:27:44.518Z,7047.00
2023-04-18T06:28:44.769Z,7086.00
2023-04-18T06:29:44.771Z,7092.00
2023-04-18T06:30:44.835Z,7085.00
2023-04-18T06:31:44.691Z,7101.00
2023-04-18T06:32:44.804Z,7007.00
2023-04-18T06:33:44.706Z,6995.00
2023-04-18T06:34:44.798Z,7024.00
2023-04-18T06:35:44.816Z,7063.00
2023-04-18T06:36:44.764Z,7062.00
2023-04-18T06:37:44.814Z,7054.00
2023-04-18T06:38:45.590Z,7038.00
2023-04-18T06:39:44.866Z,7087.00
2023-04-18T06:40:45.234Z,7120.00
2023-04-18T06:41:44.905Z,6955.00
2023-04-18T06:42:44.914Z,6938.00
2023-04-18T06:43:55.802Z,6889.00
2023-04-18T06:44:45.980Z,6816.00
2023-04-18T06:45:45.309Z,6742.00
2023-04-18T06:46:44.996Z,6731.00
2023-04-18T06:47:44.987Z,6745.00
2023-04-18T06:48:48.958Z,6651.00
2023-04-18T06:49:44.948Z,6654.00
2023-04-18T06:50:45.349Z,6695.00
2023-04-18T06:51:45.055Z,6716.00
2023-04-18T06:52:44.934Z,6657.00
2023-04-18T06:53:44.851Z,6527.00
2023-04-18T06:54:44.955Z,6491.00
2023-04-18T06:55:44.951Z,6427.00
2023-04-18T06:56:44.848Z,6361.00
2023-04-18T06:57:44.886Z,6404.00
2023-04-18T06:58:45.006Z,6368.00
2023-04-18T06:59:44.935Z,6363.00
2023-04-18T07:00:45.279Z,6334.00
2023-04-18T07:01:44.911Z,6348.00
2023-04-18T07:02:45.136Z,6476.00
2023-04-18T07:03:45.311Z,6465.00
2023-04-18T07:04:45.252Z,6451.00
2023-04-18T07:05:45.236Z,6460.00
2023-04-18T07:06:45.111Z,6374.00
2023-04-18T07:07:45.261Z,6338.00
2023-04-18T07:08:45.983Z,6213.00
2023-04-18T07:09:45.700Z,6178.00
2023-04-18T07:10:45.252Z,6150.00
2023-04-18T07:11:45.176Z,6182.00
2023-04-18T07:12:45.203Z,6208.00
2023-04-18T07:13:45.457Z,6171.00
2023-04-18T07:14:47.109Z,6158.00
2023-04-18T07:15:45.419Z,6199.00
2023-04-18T07:16:45.532Z,6197.00
2023-04-18T07:17:45.276Z,6259.00
2023-04-18T07:18:45.413Z,6215.00
2023-04-18T07:19:45.296Z,6184.00
2023-04-18T07:20:45.529Z,6103.00
2023-04-18T07:21:45.363Z,6090.00
2023-04-18T07:22:45.474Z,6076.00
2023-04-18T07:23:45.471Z,6201.00
2023-04-18T07:24:45.541Z,6140.00
2023-04-18T07:25:45.607Z,5818.00
2023-04-18T07:26:45.965Z,5777.00
2023-04-18T07:27:45.564Z,5810.00
2023-04-18T07:28:45.620Z,5827.00
2023-04-18T07:29:45.680Z,5917.00
2023-04-18T07:30:45.874Z,6049.00
2023-04-18T07:31:45.645Z,5987.00
2023-04-18T07:32:45.749Z,6081.00
2023-04-18T07:33:45.765Z,6040.00
2023-04-18T07:34:46.285Z,6121.00
2023-04-18T07:35:45.884Z,6091.00
2023-04-18T07:36:45.902Z,6023.00
2023-04-18T07:37:45.846Z,6137.00
2023-04-18T07:38:45.836Z,5987.00
2023-04-18T07:39:46.378Z,5474.00
2023-04-18T07:40:46.029Z,5200.00
2023-04-18T07:41:46.196Z,5295.00
2023-04-18T07:42:46.067Z,5336.00
2023-04-18T07:43:46.725Z,5887.00
2023-04-18T07:44:46.004Z,5778.00
2023-04-18T07:45:46.077Z,5755.00
2023-04-18T07:46:46.170Z,5538.00
2023-04-18T07:47:46.068Z,5439.00
2023-04-18T07:48:47.107Z,5371.00
2023-04-18T07:49:46.268Z,5302.00
2023-04-18T07:50:46.297Z,5361.00
2023-04-18T07:51:46.179Z,5402.00
2023-04-18T07:52:46.220Z,5749.00
2023-04-18T07:53:46.216Z,6124.00
2023-04-18T07:54:46.542Z,6178.00
2023-04-18T07:55:46.816Z,6095.00
2023-04-18T07:56:46.332Z,5767.00
2023-04-18T07:57:47.523Z,5510.00
2023-04-18T07:58:46.575Z,5488.00
2023-04-18T07:59:46.851Z,5385.00
2023-04-18T08:00:46.838Z,5258.00
2023-04-18T08:01:46.691Z,5280.00
2023-04-18T08:02:46.764Z,5549.00
2023-04-18T08:03:46.738Z,5638.00
2023-04-18T08:04:46.749Z,5620.00
2023-04-18T08:05:46.674Z,5891.00
2023-04-18T08:06:46.630Z,5962.00
2023-04-18T08:07:46.701Z,5855.00
2023-04-18T08:08:46.719Z,5647.00
2023-04-18T08:09:46.765Z,5335.00
2023-04-18T08:10:46.777Z,5087.00
2023-04-18T08:11:47.745Z,4754.00
2023-04-18T08:12:46.857Z,4565.00
2023-04-18T08:13:46.892Z,4515.00
2023-04-18T08:14:46.982Z,4116.00
2023-04-18T08:15:46.899Z,4628.00
2023-04-18T08:16:46.951Z,6505.00
2023-04-18T08:17:46.923Z,6963.00
2023-04-18T08:18:46.987Z,6986.00
2023-04-18T08:19:47.123Z,6706.00
2023-04-18T08:20:47.052Z,6451.00
2023-04-18T08:21:47.150Z,5926.00
2023-04-18T08:23:04.710Z,5473.00
2023-04-18T08:23:48.090Z,5010.00
2023-04-18T08:25:03.206Z,4973.00
2023-04-18T08:25:48.560Z,4703.00
2023-04-18T08:26:47.087Z,3848.00
2023-04-18T08:27:47.056Z,3312.00
2023-04-18T08:28:47.293Z,3862.00
2023-04-18T08:29:47.049Z,4234.00
2023-04-18T08:30:48.286Z,3937.00
2023-04-18T08:31:47.153Z,3339.00
2023-04-18T08:32:47.273Z,3045.00
2023-04-18T08:33:47.021Z,2536.00
2023-04-18T08:34:47.239Z,2432.00
2023-04-18T08:35:47.107Z,2660.00
2023-04-18T08:36:47.152Z,3108.00
2023-04-18T08:37:46.994Z,3350.00
2023-04-18T08:38:47.083Z,3902.00
2023-04-18T08:39:47.072Z,3728.00
2023-04-18T08:40:47.530Z,3012.00
2023-04-18T08:41:47.311Z,2355.00
2023-04-18T08:42:47.229Z,2155.00
2023-04-18T08:43:47.252Z,1608.00
2023-04-18T08:44:47.630Z,1434.00
2023-04-18T08:45:47.612Z,1540.00
2023-04-18T08:46:48.118Z,2224.00
2023-04-18T08:47:50.245Z,1909.00
2023-04-18T08:48:47.403Z,1478.00
2023-04-18T08:49:47.459Z,1029.00
2023-04-18T08:50:47.525Z,595.00
2023-04-18T08:51:47.751Z,400.00
2023-04-18T08:52:47.413Z,400.00
2023-04-18T08:53:47.451Z,557.00
2023-04-18T08:54:47.811Z,615.00
2023-04-18T08:55:47.385Z,629.00
2023-04-18T08:56:47.770Z,618.00
2023-04-18T08:57:47.369Z,1039.00
2023-04-18T08:58:47.318Z,967.00
2023-04-18T08:59:50.373Z,1147.00
2023-04-18T09:00:47.323Z,1152.00
2023-04-18T09:01:47.276Z,1181.00
2023-04-18T09:02:47.535Z,1301.00
2023-04-18T09:03:47.288Z,1476.00
2023-04-18T09:04:47.383Z,1292.00
2023-04-18T09:05:47.356Z,829.00
2023-04-18T09:06:47.329Z,712.00
2023-04-18T09:07:47.263Z,679.00
2023-04-18T09:08:47.253Z,400.00
2023-04-18T09:09:47.294Z,400.00
2023-04-18T09:10:47.204Z,400.00
2023-04-18T09:11:47.347Z,544.00
2023-04-18T09:12:47.218Z,616.00
2023-04-18T09:13:47.205Z,566.00
2023-04-18T09:14:47.181Z,411.00
2023-04-18T09:15:47.192Z,506.00
2023-04-18T09:16:47.293Z,516.00
2023-04-18T09:17:47.247Z,469.00
2023-04-18T09:18:47.179Z,400.00
2023-04-18T09:19:47.177Z,441.00
2023-04-18T09:20:47.291Z,714.00
2023-04-18T09:21:47.258Z,977.00
2023-04-18T09:22:47.132Z,810.00
2023-04-18T09:23:47.769Z,942.00
2023-04-18T09:24:47.787Z,784.00
2023-04-18T09:25:47.112Z,539.00
2023-04-18T09:26:47.181Z,568.00
2023-04-18T09:27:47.112Z,791.00
2023-04-18T09:28:47.208Z,1036.00
2023-04-18T09:29:47.328Z,664.00
2023-04-18T09:30:47.201Z,2492.00
2023-04-18T09:31:47.078Z,4938.00
2023-04-18T09:32:47.150Z,5995.00
2023-04-18T09:33:47.088Z,5402.00
2023-04-18T09:34:47.082Z,5106.00
2023-04-18T09:35:47.536Z,5877.00
2023-04-18T09:36:48.247Z,5164.00
2023-04-18T09:37:47.233Z,4340.00
2023-04-18T09:38:47.238Z,3075.00
2023-04-18T09:39:47.271Z,1627.00
2023-04-18T09:40:47.350Z,934.00
2023-04-18T09:41:47.256Z,632.00
2023-04-18T09:42:47.236Z,912.00
2023-04-18T09:43:47.152Z,1231.00
2023-04-18T09:44:47.332Z,1532.00
2023-04-18T09:45:47.121Z,856.00
2023-04-18T09:46:47.775Z,870.00
2023-04-18T09:47:47.894Z,1581.00
2023-04-18T09:48:47.280Z,1463.00
2023-04-18T09:49:47.107Z,654.00
2023-04-18T09:50:47.354Z,819.00
2023-04-18T09:51:47.352Z,890.00
2023-04-18T09:52:47.080Z,776.00
2023-04-18T09:53:47.038Z,636.00
2023-04-18T09:54:48.236Z,597.00
2023-04-18T09:55:47.064Z,1282.00
2023-04-18T09:56:47.226Z,957.00
2023-04-18T09:57:47.175Z,1299.00
2023-04-18T09:58:47.177Z,1317.00
2023-04-18T09:59:47.201Z,1867.00
2023-04-18T10:00:47.366Z,1637.00
2023-04-18T10:01:47.868Z,1793.00
2023-04-18T10:02:47.954Z,1883.00
2023-04-18T10:03:47.444Z,2551.00
2023-04-18T10:04:47.430Z,2332.00
2023-04-18T10:05:47.558Z,2736.00
2023-04-18T10:06:47.439Z,1645.00
2023-04-18T10:07:47.592Z,1188.00
2023-04-18T10:08:47.654Z,1453.00
2023-04-18T10:09:47.636Z,1009.00
2023-04-18T10:10:47.697Z,680.00
2023-04-18T10:11:50.271Z,610.00
2023-04-18T10:12:48.151Z,801.00
2023-04-18T10:13:48.023Z,617.00
2023-04-18T10:14:48.887Z,554.00
2023-04-18T10:15:48.063Z,538.00
2023-04-18T10:16:50.574Z,635.00
2023-04-18T10:18:02.743Z,935.00
2023-04-18T10:18:49.071Z,729.00
2023-04-18T10:19:48.068Z,627.00
2023-04-18T10:20:47.984Z,752.00
2023-04-18T10:21:48.000Z,588.00
2023-04-18T10:22:48.075Z,524.00
2023-04-18T10:23:47.997Z,531.00
2023-04-18T10:24:48.044Z,621.00
2023-04-18T10:25:48.853Z,649.00
2023-04-18T10:26:47.985Z,588.00
2023-04-18T10:27:49.030Z,565.00
2023-04-18T10:28:48.804Z,606.00
2023-04-18T10:29:48.154Z,519.00
2023-04-18T10:30:48.813Z,532.00
2023-04-18T10:31:48.364Z,2626.00
2023-04-18T10:32:48.250Z,3804.00
2023-04-18T10:34:48.364Z,1827.00
2023-04-18T10:35:48.334Z,1209.00
2023-04-18T10:36:48.401Z,1232.00
2023-04-18T10:37:48.398Z,1612.00
2023-04-18T10:38:48.459Z,1539.00
2023-04-18T10:39:48.450Z,1584.00
2023-04-18T10:40:48.575Z,637.00
2023-04-18T10:41:49.465Z,508.00
2023-04-18T10:42:48.651Z,601.00
2023-04-18T10:43:48.675Z,837.00
2023-04-18T10:44:48.639Z,1323.00
2023-04-18T10:45:48.661Z,1110.00
2023-04-18T10:46:48.861Z,1017.00
2023-04-18T10:47:48.791Z,700.00
2023-04-18T10:48:48.707Z,569.00
2023-04-18T10:49:48.695Z,608.00
2023-04-18T10:50:48.698Z,728.00
2023-04-18T10:51:48.766Z,629.00
2023-04-18T10:52:48.788Z,664.00
2023-04-18T10:53:49.322Z,1259.00
2023-04-18T10:54:48.932Z,1240.00
2023-04-18T10:55:48.900Z,675.00
2023-04-18T10:56:48.926Z,833.00
2023-04-18T10:57:48.966Z,1022.00
2023-04-18T10:58:49.935Z,700.00
2023-04-18T10:59:48.970Z,982.00
2023-04-18T11:00:49.075Z,838.00
2023-04-18T11:01:49.136Z,560.00
2023-04-18T11:02:49.306Z,585.00
2023-04-18T11:03:49.102Z,988.00
2023-04-18T11:04:49.038Z,796.00
2023-04-18T11:05:49.061Z,599.00
2023-04-18T11:06:49.526Z,903.00
2023-04-18T11:07:49.108Z,586.00
2023-04-18T11:08:49.164Z,542.00
2023-04-18T11:09:49.171Z,582.00
2023-04-18T11:10:49.177Z,588.00
2023-04-18T11:11:49.154Z,1170.00
2023-04-18T11:12:49.168Z,3724.00
2023-04-18T11:13:49.304Z,2896.00
2023-04-18T11:14:49.410Z,1958.00
2023-04-18T11:15:49.220Z,1436.00
2023-04-18T11:16:49.444Z,1364.00
2023-04-18T11:17:49.431Z,1546.00
2023-04-18T11:18:49.396Z,1589.00
2023-04-18T11:19:49.396Z,1293.00
2023-04-18T11:20:49.408Z,1327.00
2023-04-18T11:21:49.387Z,935.00
2023-04-18T11:22:49.344Z,1017.00
2023-04-18T11:23:49.462Z,1402.00
2023-04-18T11:24:49.387Z,1278.00
2023-04-18T11:25:50.441Z,1045.00
2023-04-18T11:26:49.847Z,1596.00
2023-04-18T11:27:49.581Z,1606.00
2023-04-18T11:28:49.570Z,1015.00
2023-04-18T11:29:50.367Z,631.00
2023-04-18T11:30:50.416Z,501.00
2023-04-18T11:31:49.789Z,493.00
2023-04-18T11:32:49.716Z,509.00
2023-04-18T11:33:49.779Z,544.00
2023-04-18T11:34:49.782Z,608.00
2023-04-18T11:35:49.811Z,874.00
2023-04-18T11:36:49.941Z,1049.00
2023-04-18T11:37:49.620Z,1079.00
2023-04-18T11:38:49.807Z,1370.00
2023-04-18T11:39:50.545Z,873.00
2023-04-18T11:40:49.596Z,646.00
2023-04-18T11:41:49.645Z,744.00
2023-04-18T11:42:49.585Z,1033.00
2023-04-18T11:43:49.581Z,640.00
2023-04-18T11:44:49.552Z,513.00
2023-04-18T11:45:49.595Z,477.00
2023-04-18T11:46:49.600Z,562.00
2023-04-18T11:47:49.588Z,578.00
2023-04-18T11:48:49.530Z,675.00
2023-04-18T11:49:49.510Z,723.00
2023-04-18T11:50:49.536Z,592.00
2023-04-18T11:51:49.547Z,532.00
2023-04-18T11:52:49.550Z,766.00
2023-04-18T11:53:49.517Z,1832.00
2023-04-18T11:54:49.523Z,1668.00
2023-04-18T11:55:49.515Z,1828.00
2023-04-18T11:56:49.563Z,899.00
2023-04-18T11:57:49.519Z,485.00
2023-04-18T11:58:49.511Z,606.00
2023-04-18T11:59:49.486Z,862.00
2023-04-18T12:00:49.563Z,1277.00
2023-04-18T12:01:50.065Z,1168.00
2023-04-18T12:02:49.570Z,1443.00
2023-04-18T12:03:49.574Z,1043.00
2023-04-18T12:04:49.850Z,1418.00
2023-04-18T12:05:49.572Z,1332.00
2023-04-18T12:06:49.455Z,715.00
2023-04-18T12:07:49.402Z,1319.00
2023-04-18T12:08:49.406Z,663.00
2023-04-18T12:09:49.457Z,1386.00
2023-04-18T12:10:49.528Z,1977.00